sensor_id;sensor_type;location;lat;lon;timestamp;P1;durP1;ratioP1;P2;durP2;ratioP2
9222;SDS011;7557;51.698;3.942;2023-02-26T00:00:04;3.33;;;1.77;;
9222;SDS011;7557;51.698;3.942;2023-02-26T00:02:34;2.47;;;1.80;;
9222;SDS011;7557;51.698;3.942;2023-02-26T00:05:04;3.40;;;1.33;;
9222;SDS011;7557;51.698;3.942;2023-02-26T00:07:32;5.17;;;1.90;;
9222;SDS011;7557;51.698;3.942;2023-02-26T00:09:59;4.13;;;1.87;;
9222;SDS011;7557;51.698;3.942;2023-02-26T00:12:27;3.63;;;2.07;;
9222;SDS011;7557;51.698;3.942;2023-02-26T00:14:55;3.73;;;1.70;;
9222;SDS011;7557;51.698;3.942;2023-02-26T00:17:25;6.53;;;2.50;;
9222;SDS011;7557;51.698;3.942;2023-02-26T00:19:59;4.53;;;1.97;;
9222;SDS011;7557;51.698;3.942;2023-02-26T00:22:28;1.83;;;1.43;;
9222;SDS011;7557;51.698;3.942;2023-02-26T00:24:56;2.67;;;2.00;;
9222;SDS011;7557;51.698;3.942;2023-02-26T00:27:23;4.47;;;1.90;;
9222;SDS011;7557;51.698;3.942;2023-02-26T00:29:50;4.67;;;1.83;;
9222;SDS011;7557;51.698;3.942;2023-02-26T00:32:18;8.00;;;2.00;;
9222;SDS011;7557;51.698;3.942;2023-02-26T00:34:46;7.07;;;2.10;;
9222;SDS011;7557;51.698;3.942;2023-02-26T00:37:16;1.93;;;1.70;;
9222;SDS011;7557;51.698;3.942;2023-02-26T00:40:02;4.47;;;1.90;;
9222;SDS011;7557;51.698;3.942;2023-02-26T00:42:37;3.00;;;2.00;;
9222;SDS011;7557;51.698;3.942;2023-02-26T00:45:05;3.20;;;1.43;;
9222;SDS011;7557;51.698;3.942;2023-02-26T00:47:35;5.60;;;2.10;;
9222;SDS011;7557;51.698;3.942;2023-02-26T00:53:17;4.27;;;1.73;;
9222;SDS011;7557;51.698;3.942;2023-02-26T00:55:48;4.80;;;1.83;;
9222;SDS011;7557;51.698;3.942;2023-02-26T00:58:15;5.83;;;1.97;;
9222;SDS011;7557;51.698;3.942;2023-02-26T01:00:43;2.50;;;1.50;;
9222;SDS011;7557;51.698;3.942;2023-02-26T01:03:10;3.53;;;1.60;;
9222;SDS011;7557;51.698;3.942;2023-02-26T01:05:37;3.77;;;1.90;;
9222;SDS011;7557;51.698;3.942;2023-02-26T01:08:07;4.10;;;2.27;;
9222;SDS011;7557;51.698;3.942;2023-02-26T01:10:41;2.70;;;1.60;;
9222;SDS011;7557;51.698;3.942;2023-02-26T01:13:08;5.37;;;1.97;;
9222;SDS011;7557;51.698;3.942;2023-02-26T01:15:36;3.87;;;1.70;;
9222;SDS011;7557;51.698;3.942;2023-02-26T01:18:05;3.00;;;1.10;;
9222;SDS011;7557;51.698;3.942;2023-02-26T01:20:37;3.80;;;1.33;;
9222;SDS011;7557;51.698;3.942;2023-02-26T01:23:11;1.83;;;1.73;;
9222;SDS011;7557;51.698;3.942;2023-02-26T01:25:43;4.47;;;1.53;;
9222;SDS011;7557;51.698;3.942;2023-02-26T01:28:15;4.03;;;1.50;;
9222;SDS011;7557;51.698;3.942;2023-02-26T01:30:42;4.47;;;1.80;;
9222;SDS011;7557;51.698;3.942;2023-02-26T01:33:13;3.93;;;1.50;;
9222;SDS011;7557;51.698;3.942;2023-02-26T01:35:47;2.70;;;1.27;;
9222;SDS011;7557;51.698;3.942;2023-02-26T01:38:20;4.80;;;1.40;;
9222;SDS011;7557;51.698;3.942;2023-02-26T01:41:05;2.70;;;1.70;;
9222;SDS011;7557;51.698;3.942;2023-02-26T01:43:43;3.60;;;1.30;;
9222;SDS011;7557;51.698;3.942;2023-02-26T01:46:16;4.33;;;1.50;;
9222;SDS011;7557;51.698;3.942;2023-02-26T01:48:48;1.70;;;0.97;;
9222;SDS011;7557;51.698;3.942;2023-02-26T01:51:17;8.67;;;1.80;;
9222;SDS011;7557;51.698;3.942;2023-02-26T01:54:07;1.07;;;1.07;;
9222;SDS011;7557;51.698;3.942;2023-02-26T01:56:34;2.63;;;1.87;;
9222;SDS011;7557;51.698;3.942;2023-02-26T01:59:02;3.80;;;1.03;;
9222;SDS011;7557;51.698;3.942;2023-02-26T02:01:30;2.77;;;1.07;;
9222;SDS011;7557;51.698;3.942;2023-02-26T02:03:57;3.50;;;1.10;;
9222;SDS011;7557;51.698;3.942;2023-02-26T02:06:25;4.93;;;1.10;;
9222;SDS011;7557;51.698;3.942;2023-02-26T02:08:54;1.10;;;1.10;;
9222;SDS011;7557;51.698;3.942;2023-02-26T02:11:23;0.83;;;0.80;;
9222;SDS011;7557;51.698;3.942;2023-02-26T02:13:54;1.30;;;1.20;;
9222;SDS011;7557;51.698;3.942;2023-02-26T02:16:33;2.50;;;1.00;;
9222;SDS011;7557;51.698;3.942;2023-02-26T02:19:16;4.37;;;1.20;;
9222;SDS011;7557;51.698;3.942;2023-02-26T02:22:04;4.50;;;1.20;;
9222;SDS011;7557;51.698;3.942;2023-02-26T02:24:52;2.07;;;1.23;;
9222;SDS011;7557;51.698;3.942;2023-02-26T02:27:37;5.37;;;1.33;;
9222;SDS011;7557;51.698;3.942;2023-02-26T02:30:17;4.40;;;1.47;;
9222;SDS011;7557;51.698;3.942;2023-02-26T02:32:59;4.17;;;1.23;;
9222;SDS011;7557;51.698;3.942;2023-02-26T02:35:29;1.27;;;1.17;;
9222;SDS011;7557;51.698;3.942;2023-02-26T02:38:03;1.40;;;1.00;;
9222;SDS011;7557;51.698;3.942;2023-02-26T02:40:37;3.60;;;1.47;;
9222;SDS011;7557;51.698;3.942;2023-02-26T02:43:07;4.27;;;1.40;;
9222;SDS011;7557;51.698;3.942;2023-02-26T02:45:40;11.73;;;1.63;;
9222;SDS011;7557;51.698;3.942;2023-02-26T02:48:11;4.93;;;1.30;;
9222;SDS011;7557;51.698;3.942;2023-02-26T02:50:44;5.53;;;2.33;;
9222;SDS011;7557;51.698;3.942;2023-02-26T02:53:17;6.60;;;1.77;;
9222;SDS011;7557;51.698;3.942;2023-02-26T02:55:48;2.17;;;1.40;;
9222;SDS011;7557;51.698;3.942;2023-02-26T02:58:21;2.83;;;1.60;;
9222;SDS011;7557;51.698;3.942;2023-02-26T03:00:51;6.83;;;1.93;;
9222;SDS011;7557;51.698;3.942;2023-02-26T03:03:25;3.07;;;1.43;;
9222;SDS011;7557;51.698;3.942;2023-02-26T03:05:56;3.60;;;1.73;;
9222;SDS011;7557;51.698;3.942;2023-02-26T03:08:25;4.10;;;1.57;;
9222;SDS011;7557;51.698;3.942;2023-02-26T03:10:55;2.37;;;1.40;;
9222;SDS011;7557;51.698;3.942;2023-02-26T03:13:24;4.53;;;1.43;;
9222;SDS011;7557;51.698;3.942;2023-02-26T03:15:58;4.23;;;1.30;;
9222;SDS011;7557;51.698;3.942;2023-02-26T03:18:38;3.27;;;1.60;;
9222;SDS011;7557;51.698;3.942;2023-02-26T03:21:17;2.20;;;1.67;;
9222;SDS011;7557;51.698;3.942;2023-02-26T03:23:53;3.83;;;1.63;;
9222;SDS011;7557;51.698;3.942;2023-02-26T03:26:26;4.77;;;1.53;;
9222;SDS011;7557;51.698;3.942;2023-02-26T03:28:58;1.83;;;1.30;;
9222;SDS011;7557;51.698;3.942;2023-02-26T03:31:32;1.93;;;1.50;;
9222;SDS011;7557;51.698;3.942;2023-02-26T03:34:07;4.57;;;1.20;;
9222;SDS011;7557;51.698;3.942;2023-02-26T03:36:39;3.57;;;1.73;;
9222;SDS011;7557;51.698;3.942;2023-02-26T03:39:10;2.07;;;1.70;;
9222;SDS011;7557;51.698;3.942;2023-02-26T03:41:41;7.60;;;1.53;;
9222;SDS011;7557;51.698;3.942;2023-02-26T03:44:12;2.10;;;1.40;;
9222;SDS011;7557;51.698;3.942;2023-02-26T03:46:44;3.57;;;1.43;;
9222;SDS011;7557;51.698;3.942;2023-02-26T03:49:17;3.07;;;1.40;;
9222;SDS011;7557;51.698;3.942;2023-02-26T03:51:48;3.90;;;1.47;;
9222;SDS011;7557;51.698;3.942;2023-02-26T03:54:18;4.23;;;1.83;;
9222;SDS011;7557;51.698;3.942;2023-02-26T03:56:48;4.97;;;1.40;;
9222;SDS011;7557;51.698;3.942;2023-02-26T03:59:15;4.30;;;1.40;;
9222;SDS011;7557;51.698;3.942;2023-02-26T04:01:45;4.50;;;1.40;;
9222;SDS011;7557;51.698;3.942;2023-02-26T04:04:18;9.83;;;1.70;;
9222;SDS011;7557;51.698;3.942;2023-02-26T04:06:48;2.77;;;1.40;;
9222;SDS011;7557;51.698;3.942;2023-02-26T04:09:17;4.30;;;1.67;;
9222;SDS011;7557;51.698;3.942;2023-02-26T04:11:45;2.90;;;1.43;;
9222;SDS011;7557;51.698;3.942;2023-02-26T04:14:14;2.87;;;1.47;;
9222;SDS011;7557;51.698;3.942;2023-02-26T04:16:41;2.17;;;1.30;;
9222;SDS011;7557;51.698;3.942;2023-02-26T04:19:10;2.50;;;1.50;;
9222;SDS011;7557;51.698;3.942;2023-02-26T04:21:38;3.63;;;1.60;;
9222;SDS011;7557;51.698;3.942;2023-02-26T04:24:06;2.30;;;1.33;;
9222;SDS011;7557;51.698;3.942;2023-02-26T04:26:33;3.83;;;1.40;;
9222;SDS011;7557;51.698;3.942;2023-02-26T04:29:00;3.50;;;1.30;;
9222;SDS011;7557;51.698;3.942;2023-02-26T04:31:27;6.03;;;1.80;;
9222;SDS011;7557;51.698;3.942;2023-02-26T04:33:54;1.90;;;1.03;;
9222;SDS011;7557;51.698;3.942;2023-02-26T04:36:21;3.00;;;1.60;;
9222;SDS011;7557;51.698;3.942;2023-02-26T04:38:50;1.27;;;1.17;;
9222;SDS011;7557;51.698;3.942;2023-02-26T04:41:18;5.37;;;1.40;;
9222;SDS011;7557;51.698;3.942;2023-02-26T04:43:45;2.20;;;1.20;;
9222;SDS011;7557;51.698;3.942;2023-02-26T04:46:12;3.77;;;1.13;;
9222;SDS011;7557;51.698;3.942;2023-02-26T04:48:39;3.30;;;1.27;;
9222;SDS011;7557;51.698;3.942;2023-02-26T04:51:06;3.23;;;1.40;;
9222;SDS011;7557;51.698;3.942;2023-02-26T04:53:33;3.53;;;1.33;;
9222;SDS011;7557;51.698;3.942;2023-02-26T04:56:02;0.93;;;0.83;;
9222;SDS011;7557;51.698;3.942;2023-02-26T04:58:29;1.70;;;1.20;;
9222;SDS011;7557;51.698;3.942;2023-02-26T05:00:56;1.00;;;1.00;;
9222;SDS011;7557;51.698;3.942;2023-02-26T05:03:23;4.67;;;1.60;;
9222;SDS011;7557;51.698;3.942;2023-02-26T05:05:50;2.00;;;1.20;;
9222;SDS011;7557;51.698;3.942;2023-02-26T05:08:17;6.10;;;1.70;;
9222;SDS011;7557;51.698;3.942;2023-02-26T05:10:44;3.90;;;2.03;;
9222;SDS011;7557;51.698;3.942;2023-02-26T05:13:13;1.60;;;1.37;;
9222;SDS011;7557;51.698;3.942;2023-02-26T05:15:40;4.17;;;1.00;;
9222;SDS011;7557;51.698;3.942;2023-02-26T05:18:07;4.20;;;1.20;;
9222;SDS011;7557;51.698;3.942;2023-02-26T05:20:34;1.57;;;1.27;;
9222;SDS011;7557;51.698;3.942;2023-02-26T05:23:01;5.47;;;1.20;;
9222;SDS011;7557;51.698;3.942;2023-02-26T05:25:29;4.77;;;1.50;;
9222;SDS011;7557;51.698;3.942;2023-02-26T05:27:56;4.27;;;1.30;;
9222;SDS011;7557;51.698;3.942;2023-02-26T05:30:24;2.73;;;1.30;;
9222;SDS011;7557;51.698;3.942;2023-02-26T05:32:51;2.97;;;1.20;;
9222;SDS011;7557;51.698;3.942;2023-02-26T05:35:18;3.90;;;1.20;;
9222;SDS011;7557;51.698;3.942;2023-02-26T05:37:45;3.43;;;1.17;;
9222;SDS011;7557;51.698;3.942;2023-02-26T05:40:13;2.53;;;1.13;;
9222;SDS011;7557;51.698;3.942;2023-02-26T05:42:40;2.67;;;1.30;;
9222;SDS011;7557;51.698;3.942;2023-02-26T05:45:07;2.60;;;1.10;;
9222;SDS011;7557;51.698;3.942;2023-02-26T05:47:36;10.13;;;1.73;;
9222;SDS011;7557;51.698;3.942;2023-02-26T05:50:04;2.03;;;1.03;;
9222;SDS011;7557;51.698;3.942;2023-02-26T05:52:32;3.50;;;1.03;;
9222;SDS011;7557;51.698;3.942;2023-02-26T05:54:59;4.93;;;1.43;;
9222;SDS011;7557;51.698;3.942;2023-02-26T05:57:26;2.20;;;1.20;;
9222;SDS011;7557;51.698;3.942;2023-02-26T05:59:53;6.10;;;1.13;;
9222;SDS011;7557;51.698;3.942;2023-02-26T06:02:20;1.80;;;1.57;;
9222;SDS011;7557;51.698;3.942;2023-02-26T06:04:49;3.50;;;1.20;;
9222;SDS011;7557;51.698;3.942;2023-02-26T06:07:16;2.27;;;0.97;;
9222;SDS011;7557;51.698;3.942;2023-02-26T06:09:43;3.37;;;1.00;;
9222;SDS011;7557;51.698;3.942;2023-02-26T06:12:10;5.07;;;1.13;;
9222;SDS011;7557;51.698;3.942;2023-02-26T06:14:37;3.10;;;1.40;;
9222;SDS011;7557;51.698;3.942;2023-02-26T06:17:04;5.40;;;1.23;;
9222;SDS011;7557;51.698;3.942;2023-02-26T06:19:32;4.03;;;1.63;;
9222;SDS011;7557;51.698;3.942;2023-02-26T06:22:01;1.47;;;0.90;;
9222;SDS011;7557;51.698;3.942;2023-02-26T06:24:28;2.20;;;1.07;;
9222;SDS011;7557;51.698;3.942;2023-02-26T06:26:56;2.33;;;1.30;;
9222;SDS011;7557;51.698;3.942;2023-02-26T06:29:23;3.93;;;1.40;;
9222;SDS011;7557;51.698;3.942;2023-02-26T06:31:50;3.23;;;1.47;;
9222;SDS011;7557;51.698;3.942;2023-02-26T06:34:17;2.93;;;0.93;;
9222;SDS011;7557;51.698;3.942;2023-02-26T06:36:44;2.70;;;1.30;;
9222;SDS011;7557;51.698;3.942;2023-02-26T06:39:12;1.10;;;1.00;;
9222;SDS011;7557;51.698;3.942;2023-02-26T06:41:39;1.97;;;1.13;;
9222;SDS011;7557;51.698;3.942;2023-02-26T06:44:06;1.53;;;1.43;;
9222;SDS011;7557;51.698;3.942;2023-02-26T06:46:34;1.93;;;0.93;;
9222;SDS011;7557;51.698;3.942;2023-02-26T06:49:02;3.20;;;1.30;;
9222;SDS011;7557;51.698;3.942;2023-02-26T06:51:29;4.87;;;1.17;;
9222;SDS011;7557;51.698;3.942;2023-02-26T06:53:56;2.93;;;1.10;;
9222;SDS011;7557;51.698;3.942;2023-02-26T06:56:24;3.77;;;1.40;;
9222;SDS011;7557;51.698;3.942;2023-02-26T06:58:51;3.40;;;1.40;;
9222;SDS011;7557;51.698;3.942;2023-02-26T07:01:18;3.10;;;1.40;;
9222;SDS011;7557;51.698;3.942;2023-02-26T07:03:46;2.43;;;1.40;;
9222;SDS011;7557;51.698;3.942;2023-02-26T07:06:13;2.37;;;1.53;;
9222;SDS011;7557;51.698;3.942;2023-02-26T07:08:40;2.97;;;1.23;;
9222;SDS011;7557;51.698;3.942;2023-02-26T07:11:07;1.97;;;1.50;;
9222;SDS011;7557;51.698;3.942;2023-02-26T07:13:36;3.63;;;1.60;;
9222;SDS011;7557;51.698;3.942;2023-02-26T07:16:03;1.33;;;0.83;;
9222;SDS011;7557;51.698;3.942;2023-02-26T07:18:32;1.93;;;1.13;;
9222;SDS011;7557;51.698;3.942;2023-02-26T07:20:59;2.90;;;1.10;;
9222;SDS011;7557;51.698;3.942;2023-02-26T07:23:26;4.50;;;2.00;;
9222;SDS011;7557;51.698;3.942;2023-02-26T07:25:53;5.80;;;1.80;;
9222;SDS011;7557;51.698;3.942;2023-02-26T07:28:20;4.10;;;1.50;;
9222;SDS011;7557;51.698;3.942;2023-02-26T07:30:49;4.60;;;1.33;;
9222;SDS011;7557;51.698;3.942;2023-02-26T07:33:16;8.90;;;1.60;;
9222;SDS011;7557;51.698;3.942;2023-02-26T07:35:43;4.30;;;1.20;;
9222;SDS011;7557;51.698;3.942;2023-02-26T07:38:10;3.77;;;2.17;;
9222;SDS011;7557;51.698;3.942;2023-02-26T07:40:37;6.37;;;1.50;;
9222;SDS011;7557;51.698;3.942;2023-02-26T07:43:04;4.10;;;1.00;;
9222;SDS011;7557;51.698;3.942;2023-02-26T07:45:31;5.87;;;1.33;;
9222;SDS011;7557;51.698;3.942;2023-02-26T07:48:00;4.70;;;1.50;;
9222;SDS011;7557;51.698;3.942;2023-02-26T07:50:27;4.30;;;1.23;;
9222;SDS011;7557;51.698;3.942;2023-02-26T07:52:54;2.30;;;1.60;;
9222;SDS011;7557;51.698;3.942;2023-02-26T07:55:21;2.80;;;1.40;;
9222;SDS011;7557;51.698;3.942;2023-02-26T07:57:48;2.43;;;1.20;;
9222;SDS011;7557;51.698;3.942;2023-02-26T08:00:16;3.20;;;1.40;;
9222;SDS011;7557;51.698;3.942;2023-02-26T08:02:43;4.27;;;1.57;;
9222;SDS011;7557;51.698;3.942;2023-02-26T08:05:13;3.40;;;1.07;;
9222;SDS011;7557;51.698;3.942;2023-02-26T08:07:40;3.13;;;1.40;;
9222;SDS011;7557;51.698;3.942;2023-02-26T08:10:07;2.70;;;1.47;;
9222;SDS011;7557;51.698;3.942;2023-02-26T08:12:36;1.03;;;1.03;;
9222;SDS011;7557;51.698;3.942;2023-02-26T08:15:04;3.40;;;1.77;;
9222;SDS011;7557;51.698;3.942;2023-02-26T08:17:32;4.47;;;1.27;;
9222;SDS011;7557;51.698;3.942;2023-02-26T08:19:59;4.93;;;1.90;;
9222;SDS011;7557;51.698;3.942;2023-02-26T08:22:28;2.77;;;1.40;;
9222;SDS011;7557;51.698;3.942;2023-02-26T08:24:54;4.10;;;1.20;;
9222;SDS011;7557;51.698;3.942;2023-02-26T08:27:22;1.70;;;1.60;;
9222;SDS011;7557;51.698;3.942;2023-02-26T08:29:49;2.93;;;1.07;;
9222;SDS011;7557;51.698;3.942;2023-02-26T08:32:16;2.67;;;0.73;;
9222;SDS011;7557;51.698;3.942;2023-02-26T08:34:47;1.73;;;0.93;;
9222;SDS011;7557;51.698;3.942;2023-02-26T08:37:14;3.20;;;1.27;;
9222;SDS011;7557;51.698;3.942;2023-02-26T08:39:43;2.40;;;1.00;;
9222;SDS011;7557;51.698;3.942;2023-02-26T08:42:10;4.00;;;2.37;;
9222;SDS011;7557;51.698;3.942;2023-02-26T08:44:40;1.80;;;1.20;;
9222;SDS011;7557;51.698;3.942;2023-02-26T08:47:07;1.43;;;1.20;;
9222;SDS011;7557;51.698;3.942;2023-02-26T08:49:35;1.27;;;0.97;;
9222;SDS011;7557;51.698;3.942;2023-02-26T08:52:02;2.00;;;1.00;;
9222;SDS011;7557;51.698;3.942;2023-02-26T08:54:29;0.70;;;0.70;;
9222;SDS011;7557;51.698;3.942;2023-02-26T08:56:58;2.40;;;1.10;;
9222;SDS011;7557;51.698;3.942;2023-02-26T08:59:25;0.93;;;0.93;;
9222;SDS011;7557;51.698;3.942;2023-02-26T09:01:52;1.23;;;0.60;;
9222;SDS011;7557;51.698;3.942;2023-02-26T09:04:19;1.80;;;0.83;;
9222;SDS011;7557;51.698;3.942;2023-02-26T09:06:47;1.03;;;1.00;;
9222;SDS011;7557;51.698;3.942;2023-02-26T09:09:14;1.40;;;0.60;;
9222;SDS011;7557;51.698;3.942;2023-02-26T09:11:41;0.50;;;0.50;;
9222;SDS011;7557;51.698;3.942;2023-02-26T09:14:09;2.77;;;1.13;;
9222;SDS011;7557;51.698;3.942;2023-02-26T09:16:36;3.27;;;0.80;;
9222;SDS011;7557;51.698;3.942;2023-02-26T09:19:04;0.83;;;0.83;;
9222;SDS011;7557;51.698;3.942;2023-02-26T09:21:32;0.80;;;0.80;;
9222;SDS011;7557;51.698;3.942;2023-02-26T09:23:59;1.27;;;0.80;;
9222;SDS011;7557;51.698;3.942;2023-02-26T09:26:27;1.23;;;0.87;;
9222;SDS011;7557;51.698;3.942;2023-02-26T09:28:54;1.07;;;0.60;;
9222;SDS011;7557;51.698;3.942;2023-02-26T09:31:23;1.40;;;0.80;;
9222;SDS011;7557;51.698;3.942;2023-02-26T09:33:50;0.97;;;0.73;;
9222;SDS011;7557;51.698;3.942;2023-02-26T09:36:17;4.37;;;0.97;;
9222;SDS011;7557;51.698;3.942;2023-02-26T09:38:44;3.47;;;1.20;;
9222;SDS011;7557;51.698;3.942;2023-02-26T09:41:15;1.60;;;0.90;;
9222;SDS011;7557;51.698;3.942;2023-02-26T09:43:52;2.37;;;0.70;;
9222;SDS011;7557;51.698;3.942;2023-02-26T09:46:39;3.40;;;1.40;;
9222;SDS011;7557;51.698;3.942;2023-02-26T09:49:14;0.53;;;0.53;;
9222;SDS011;7557;51.698;3.942;2023-02-26T09:51:48;9.03;;;0.87;;
9222;SDS011;7557;51.698;3.942;2023-02-26T09:54:18;2.83;;;0.67;;
9222;SDS011;7557;51.698;3.942;2023-02-26T09:56:50;3.83;;;0.93;;
9222;SDS011;7557;51.698;3.942;2023-02-26T09:59:18;1.97;;;0.90;;
9222;SDS011;7557;51.698;3.942;2023-02-26T10:01:54;3.80;;;0.90;;
9222;SDS011;7557;51.698;3.942;2023-02-26T10:04:26;3.13;;;0.83;;
9222;SDS011;7557;51.698;3.942;2023-02-26T10:07:10;1.43;;;0.70;;
9222;SDS011;7557;51.698;3.942;2023-02-26T10:09:51;1.53;;;0.90;;
9222;SDS011;7557;51.698;3.942;2023-02-26T10:12:25;2.27;;;0.97;;
9222;SDS011;7557;51.698;3.942;2023-02-26T10:14:55;1.40;;;0.93;;
9222;SDS011;7557;51.698;3.942;2023-02-26T10:17:28;0.63;;;0.63;;
9222;SDS011;7557;51.698;3.942;2023-02-26T10:19:59;0.60;;;0.50;;
9222;SDS011;7557;51.698;3.942;2023-02-26T10:22:30;0.87;;;0.87;;
9222;SDS011;7557;51.698;3.942;2023-02-26T10:25:04;1.17;;;1.07;;
9222;SDS011;7557;51.698;3.942;2023-02-26T10:27:41;1.57;;;0.90;;
9222;SDS011;7557;51.698;3.942;2023-02-26T10:30:20;3.47;;;1.77;;
9222;SDS011;7557;51.698;3.942;2023-02-26T10:32:57;1.03;;;0.73;;
9222;SDS011;7557;51.698;3.942;2023-02-26T10:35:30;1.50;;;0.90;;
9222;SDS011;7557;51.698;3.942;2023-02-26T10:38:03;4.23;;;0.87;;
9222;SDS011;7557;51.698;3.942;2023-02-26T10:40:36;4.10;;;1.20;;
9222;SDS011;7557;51.698;3.942;2023-02-26T10:43:09;3.73;;;1.07;;
9222;SDS011;7557;51.698;3.942;2023-02-26T10:45:43;2.43;;;0.90;;
9222;SDS011;7557;51.698;3.942;2023-02-26T10:48:23;2.87;;;0.70;;
9222;SDS011;7557;51.698;3.942;2023-02-26T10:50:59;0.60;;;0.60;;
9222;SDS011;7557;51.698;3.942;2023-02-26T10:53:34;0.90;;;0.90;;
9222;SDS011;7557;51.698;3.942;2023-02-26T10:56:03;1.17;;;1.07;;
9222;SDS011;7557;51.698;3.942;2023-02-26T10:58:33;1.60;;;0.70;;
9222;SDS011;7557;51.698;3.942;2023-02-26T11:01:00;2.07;;;0.90;;
9222;SDS011;7557;51.698;3.942;2023-02-26T11:03:31;1.20;;;0.57;;
9222;SDS011;7557;51.698;3.942;2023-02-26T11:06:01;2.73;;;0.80;;
9222;SDS011;7557;51.698;3.942;2023-02-26T11:08:31;0.80;;;0.80;;
9222;SDS011;7557;51.698;3.942;2023-02-26T11:11:00;0.80;;;0.80;;
9222;SDS011;7557;51.698;3.942;2023-02-26T11:13:29;3.43;;;1.43;;
9222;SDS011;7557;51.698;3.942;2023-02-26T11:16:00;0.67;;;0.67;;
9222;SDS011;7557;51.698;3.942;2023-02-26T11:18:29;2.00;;;0.70;;
9222;SDS011;7557;51.698;3.942;2023-02-26T11:21:03;0.83;;;0.50;;
9222;SDS011;7557;51.698;3.942;2023-02-26T11:23:32;0.97;;;0.60;;
9222;SDS011;7557;51.698;3.942;2023-02-26T11:26:02;0.67;;;0.67;;
9222;SDS011;7557;51.698;3.942;2023-02-26T11:28:34;1.00;;;0.87;;
9222;SDS011;7557;51.698;3.942;2023-02-26T11:31:04;0.77;;;0.77;;
9222;SDS011;7557;51.698;3.942;2023-02-26T11:33:35;1.33;;;0.50;;
9222;SDS011;7557;51.698;3.942;2023-02-26T11:36:07;3.37;;;1.10;;
9222;SDS011;7557;51.698;3.942;2023-02-26T11:38:36;3.70;;;0.73;;
9222;SDS011;7557;51.698;3.942;2023-02-26T11:41:03;1.40;;;0.77;;
9222;SDS011;7557;51.698;3.942;2023-02-26T11:43:35;1.27;;;0.90;;
9222;SDS011;7557;51.698;3.942;2023-02-26T11:46:05;1.03;;;0.60;;
9222;SDS011;7557;51.698;3.942;2023-02-26T11:48:37;1.50;;;0.60;;
9222;SDS011;7557;51.698;3.942;2023-02-26T11:51:07;1.67;;;0.83;;
9222;SDS011;7557;51.698;3.942;2023-02-26T11:53:40;1.37;;;0.80;;
9222;SDS011;7557;51.698;3.942;2023-02-26T11:56:13;3.57;;;0.93;;
9222;SDS011;7557;51.698;3.942;2023-02-26T11:58:45;1.23;;;0.70;;
9222;SDS011;7557;51.698;3.942;2023-02-26T12:01:16;2.23;;;0.40;;
9222;SDS011;7557;51.698;3.942;2023-02-26T12:03:48;2.20;;;1.17;;
9222;SDS011;7557;51.698;3.942;2023-02-26T12:06:17;1.13;;;0.60;;
9222;SDS011;7557;51.698;3.942;2023-02-26T12:08:48;0.77;;;0.77;;
9222;SDS011;7557;51.698;3.942;2023-02-26T12:11:26;1.40;;;0.80;;
9222;SDS011;7557;51.698;3.942;2023-02-26T12:14:09;1.63;;;0.80;;
9222;SDS011;7557;51.698;3.942;2023-02-26T12:16:47;2.60;;;0.80;;
9222;SDS011;7557;51.698;3.942;2023-02-26T12:19:29;1.57;;;0.77;;
9222;SDS011;7557;51.698;3.942;2023-02-26T12:22:07;3.93;;;0.70;;
9222;SDS011;7557;51.698;3.942;2023-02-26T12:27:50;0.77;;;0.77;;
9222;SDS011;7557;51.698;3.942;2023-02-26T12:30:46;0.60;;;0.60;;
9222;SDS011;7557;51.698;3.942;2023-02-26T12:33:27;1.73;;;0.80;;
9222;SDS011;7557;51.698;3.942;2023-02-26T12:36:17;0.60;;;0.60;;
9222;SDS011;7557;51.698;3.942;2023-02-26T12:38:56;1.60;;;0.70;;
9222;SDS011;7557;51.698;3.942;2023-02-26T12:44:31;2.63;;;0.90;;
9222;SDS011;7557;51.698;3.942;2023-02-26T12:47:18;2.13;;;1.00;;
9222;SDS011;7557;51.698;3.942;2023-02-26T12:49:58;1.97;;;0.60;;
9222;SDS011;7557;51.698;3.942;2023-02-26T12:55:39;0.60;;;0.60;;
9222;SDS011;7557;51.698;3.942;2023-02-26T12:58:25;0.80;;;0.80;;
9222;SDS011;7557;51.698;3.942;2023-02-26T13:01:07;1.90;;;0.70;;
9222;SDS011;7557;51.698;3.942;2023-02-26T13:03:52;0.70;;;0.70;;
9222;SDS011;7557;51.698;3.942;2023-02-26T13:06:50;0.83;;;0.83;;
9222;SDS011;7557;51.698;3.942;2023-02-26T13:09:41;2.50;;;0.80;;
9222;SDS011;7557;51.698;3.942;2023-02-26T13:12:25;3.13;;;0.93;;
9222;SDS011;7557;51.698;3.942;2023-02-26T13:15:07;1.53;;;0.90;;
9222;SDS011;7557;51.698;3.942;2023-02-26T13:17:46;1.60;;;0.77;;
9222;SDS011;7557;51.698;3.942;2023-02-26T13:20:23;1.80;;;1.00;;
9222;SDS011;7557;51.698;3.942;2023-02-26T13:22:52;1.67;;;0.73;;
9222;SDS011;7557;51.698;3.942;2023-02-26T13:25:24;2.67;;;1.00;;
9222;SDS011;7557;51.698;3.942;2023-02-26T13:27:58;1.47;;;1.03;;
9222;SDS011;7557;51.698;3.942;2023-02-26T13:30:30;0.67;;;0.67;;
9222;SDS011;7557;51.698;3.942;2023-02-26T13:33:01;1.43;;;1.17;;
9222;SDS011;7557;51.698;3.942;2023-02-26T13:35:32;1.03;;;0.80;;
9222;SDS011;7557;51.698;3.942;2023-02-26T13:38:04;0.63;;;0.63;;
9222;SDS011;7557;51.698;3.942;2023-02-26T13:40:44;1.20;;;1.10;;
9222;SDS011;7557;51.698;3.942;2023-02-26T13:43:41;1.37;;;0.80;;
9222;SDS011;7557;51.698;3.942;2023-02-26T13:46:23;0.93;;;0.80;;
9222;SDS011;7557;51.698;3.942;2023-02-26T13:49:01;0.50;;;0.50;;
9222;SDS011;7557;51.698;3.942;2023-02-26T13:51:35;1.07;;;0.80;;
9222;SDS011;7557;51.698;3.942;2023-02-26T13:54:06;1.03;;;0.93;;
9222;SDS011;7557;51.698;3.942;2023-02-26T13:56:44;0.80;;;0.80;;
9222;SDS011;7557;51.698;3.942;2023-02-26T13:59:24;0.70;;;0.70;;
9222;SDS011;7557;51.698;3.942;2023-02-26T14:05:06;1.00;;;0.70;;
9222;SDS011;7557;51.698;3.942;2023-02-26T14:07:53;5.20;;;1.07;;
9222;SDS011;7557;51.698;3.942;2023-02-26T14:10:42;1.10;;;0.80;;
9222;SDS011;7557;51.698;3.942;2023-02-26T14:13:16;1.90;;;1.03;;
9222;SDS011;7557;51.698;3.942;2023-02-26T14:15:49;1.53;;;1.10;;
9222;SDS011;7557;51.698;3.942;2023-02-26T14:18:25;0.70;;;0.70;;
9222;SDS011;7557;51.698;3.942;2023-02-26T14:23:54;1.30;;;0.90;;
9222;SDS011;7557;51.698;3.942;2023-02-26T14:26:23;4.00;;;1.10;;
9222;SDS011;7557;51.698;3.942;2023-02-26T14:28:58;2.20;;;1.23;;
9222;SDS011;7557;51.698;3.942;2023-02-26T14:34:20;1.47;;;0.97;;
9222;SDS011;7557;51.698;3.942;2023-02-26T14:36:50;3.73;;;0.90;;
9222;SDS011;7557;51.698;3.942;2023-02-26T14:39:24;1.40;;;0.80;;
9222;SDS011;7557;51.698;3.942;2023-02-26T14:41:58;2.43;;;1.23;;
9222;SDS011;7557;51.698;3.942;2023-02-26T14:44:30;0.80;;;0.80;;
9222;SDS011;7557;51.698;3.942;2023-02-26T14:47:01;1.43;;;0.67;;
9222;SDS011;7557;51.698;3.942;2023-02-26T14:49:30;0.90;;;0.90;;
9222;SDS011;7557;51.698;3.942;2023-02-26T14:55:04;0.63;;;0.60;;
9222;SDS011;7557;51.698;3.942;2023-02-26T14:57:45;1.07;;;0.70;;
9222;SDS011;7557;51.698;3.942;2023-02-26T15:00:28;0.90;;;0.90;;
9222;SDS011;7557;51.698;3.942;2023-02-26T15:06:04;5.33;;;1.20;;
9222;SDS011;7557;51.698;3.942;2023-02-26T15:08:52;1.47;;;1.00;;
9222;SDS011;7557;51.698;3.942;2023-02-26T15:11:37;1.70;;;1.00;;
9222;SDS011;7557;51.698;3.942;2023-02-26T15:14:22;2.70;;;1.20;;
9222;SDS011;7557;51.698;3.942;2023-02-26T15:17:05;0.97;;;0.90;;
9222;SDS011;7557;51.698;3.942;2023-02-26T15:19:48;2.83;;;1.10;;
9222;SDS011;7557;51.698;3.942;2023-02-26T15:22:35;1.77;;;1.00;;
9222;SDS011;7557;51.698;3.942;2023-02-26T15:25:15;2.63;;;0.93;;
9222;SDS011;7557;51.698;3.942;2023-02-26T15:27:50;2.57;;;1.10;;
9222;SDS011;7557;51.698;3.942;2023-02-26T15:30:19;0.83;;;0.83;;
9222;SDS011;7557;51.698;3.942;2023-02-26T15:32:47;1.20;;;1.10;;
9222;SDS011;7557;51.698;3.942;2023-02-26T15:35:15;0.70;;;0.70;;
9222;SDS011;7557;51.698;3.942;2023-02-26T15:37:47;2.53;;;1.10;;
9222;SDS011;7557;51.698;3.942;2023-02-26T15:40:15;3.97;;;1.00;;
9222;SDS011;7557;51.698;3.942;2023-02-26T15:42:43;1.10;;;0.83;;
9222;SDS011;7557;51.698;3.942;2023-02-26T15:45:17;1.30;;;0.87;;
9222;SDS011;7557;51.698;3.942;2023-02-26T15:47:51;1.77;;;1.47;;
9222;SDS011;7557;51.698;3.942;2023-02-26T15:50:21;1.83;;;0.97;;
9222;SDS011;7557;51.698;3.942;2023-02-26T15:52:52;2.40;;;1.50;;
9222;SDS011;7557;51.698;3.942;2023-02-26T15:55:23;1.37;;;0.80;;
9222;SDS011;7557;51.698;3.942;2023-02-26T15:57:51;1.50;;;1.20;;
9222;SDS011;7557;51.698;3.942;2023-02-26T16:00:20;1.17;;;1.17;;
9222;SDS011;7557;51.698;3.942;2023-02-26T16:02:51;1.67;;;0.80;;
9222;SDS011;7557;51.698;3.942;2023-02-26T16:05:21;0.80;;;0.80;;
9222;SDS011;7557;51.698;3.942;2023-02-26T16:07:48;1.40;;;0.70;;